sensor_id;sensor_type;location;lat;lon;timestamp;P1;durP1;ratioP1;P2;durP2;ratioP2
52266;SDS011;38223;50.940;4.034;2023-04-01T00:01:40;7.47;;;1.80;;
52266;SDS011;38223;50.940;4.034;2023-04-01T00:04:08;3.67;;;1.40;;
52266;SDS011;38223;50.940;4.034;2023-04-01T00:06:35;6.12;;;1.42;;
52266;SDS011;38223;50.940;4.034;2023-04-01T00:09:06;8.10;;;1.87;;
52266;SDS011;38223;50.940;4.034;2023-04-01T00:11:36;5.53;;;1.75;;
52266;SDS011;38223;50.940;4.034;2023-04-01T00:14:09;7.70;;;1.80;;
52266;SDS011;38223;50.940;4.034;2023-04-01T00:16:39;9.23;;;2.60;;
52266;SDS011;38223;50.940;4.034;2023-04-01T00:19:10;5.30;;;2.30;;
52266;SDS011;38223;50.940;4.034;2023-04-01T00:21:37;5.58;;;2.52;;
52266;SDS011;38223;50.940;4.034;2023-04-01T00:24:06;6.40;;;2.30;;
52266;SDS011;38223;50.940;4.034;2023-04-01T00:26:40;7.00;;;2.72;;
52266;SDS011;38223;50.940;4.034;2023-04-01T00:29:13;6.65;;;2.70;;
52266;SDS011;38223;50.940;4.034;2023-04-01T00:31:47;5.00;;;2.80;;
52266;SDS011;38223;50.940;4.034;2023-04-01T00:34:15;6.78;;;2.70;;
52266;SDS011;38223;50.940;4.034;2023-04-01T00:36:43;9.00;;;2.98;;
52266;SDS011;38223;50.940;4.034;2023-04-01T00:39:13;5.60;;;2.90;;
52266;SDS011;38223;50.940;4.034;2023-04-01T00:41:43;7.22;;;3.55;;
52266;SDS011;38223;50.940;4.034;2023-04-01T00:44:22;7.87;;;4.12;;
52266;SDS011;38223;50.940;4.034;2023-04-01T00:46:53;7.80;;;3.70;;
52266;SDS011;38223;50.940;4.034;2023-04-01T00:49:32;8.68;;;4.70;;
52266;SDS011;38223;50.940;4.034;2023-04-01T00:52:01;8.28;;;4.15;;
52266;SDS011;38223;50.940;4.034;2023-04-01T00:54:33;8.75;;;4.80;;
52266;SDS011;38223;50.940;4.034;2023-04-01T00:57:16;9.78;;;4.40;;
52266;SDS011;38223;50.940;4.034;2023-04-01T00:59:49;10.58;;;4.45;;
52266;SDS011;38223;50.940;4.034;2023-04-01T01:05:13;7.17;;;4.00;;
52266;SDS011;38223;50.940;4.034;2023-04-01T01:08:01;9.73;;;4.95;;
52266;SDS011;38223;50.940;4.034;2023-04-01T01:10:34;6.15;;;4.53;;
52266;SDS011;38223;50.940;4.034;2023-04-01T01:13:16;8.50;;;5.20;;
52266;SDS011;38223;50.940;4.034;2023-04-01T01:15:59;8.68;;;5.50;;
52266;SDS011;38223;50.940;4.034;2023-04-01T01:32:38;12.15;;;4.70;;
52266;SDS011;38223;50.940;4.034;2023-04-01T01:38:11;11.50;;;5.03;;
52266;SDS011;38223;50.940;4.034;2023-04-01T01:40:45;16.30;;;4.58;;
52266;SDS011;38223;50.940;4.034;2023-04-01T01:43:19;9.60;;;3.95;;
52266;SDS011;38223;50.940;4.034;2023-04-01T01:45:56;12.80;;;5.30;;
52266;SDS011;38223;50.940;4.034;2023-04-01T01:48:28;8.43;;;3.55;;
52266;SDS011;38223;50.940;4.034;2023-04-01T01:51:02;5.97;;;3.60;;
52266;SDS011;38223;50.940;4.034;2023-04-01T01:53:39;9.53;;;4.30;;
52266;SDS011;38223;50.940;4.034;2023-04-01T01:56:10;7.03;;;4.15;;
52266;SDS011;38223;50.940;4.034;2023-04-01T01:58:44;9.33;;;5.20;;
52266;SDS011;38223;50.940;4.034;2023-04-01T02:01:17;8.85;;;4.55;;
52266;SDS011;38223;50.940;4.034;2023-04-01T02:03:51;8.70;;;3.98;;
52266;SDS011;38223;50.940;4.034;2023-04-01T02:06:26;7.10;;;4.10;;
52266;SDS011;38223;50.940;4.034;2023-04-01T02:09:04;11.18;;;3.85;;
52266;SDS011;38223;50.940;4.034;2023-04-01T02:11:39;9.20;;;3.65;;
52266;SDS011;38223;50.940;4.034;2023-04-01T02:14:16;10.08;;;4.20;;
52266;SDS011;38223;50.940;4.034;2023-04-01T02:17:02;12.30;;;3.27;;
52266;SDS011;38223;50.940;4.034;2023-04-01T02:19:38;6.10;;;3.12;;
52266;SDS011;38223;50.940;4.034;2023-04-01T02:22:11;14.53;;;3.55;;
52266;SDS011;38223;50.940;4.034;2023-04-01T02:24:42;11.22;;;3.98;;
52266;SDS011;38223;50.940;4.034;2023-04-01T02:27:15;10.45;;;3.67;;
52266;SDS011;38223;50.940;4.034;2023-04-01T02:29:44;13.85;;;3.77;;
52266;SDS011;38223;50.940;4.034;2023-04-01T02:32:15;15.25;;;4.97;;
52266;SDS011;38223;50.940;4.034;2023-04-01T02:34:52;6.05;;;4.33;;
52266;SDS011;38223;50.940;4.034;2023-04-01T02:37:28;12.15;;;4.85;;
52266;SDS011;38223;50.940;4.034;2023-04-01T02:40:06;12.90;;;5.42;;
52266;SDS011;38223;50.940;4.034;2023-04-01T02:42:58;7.80;;;5.05;;
52266;SDS011;38223;50.940;4.034;2023-04-01T02:45:31;12.43;;;5.33;;
52266;SDS011;38223;50.940;4.034;2023-04-01T02:48:03;16.50;;;6.47;;
52266;SDS011;38223;50.940;4.034;2023-04-01T02:50:46;12.37;;;6.42;;
52266;SDS011;38223;50.940;4.034;2023-04-01T02:53:24;13.90;;;6.33;;
52266;SDS011;38223;50.940;4.034;2023-04-01T02:56:01;11.22;;;6.42;;
52266;SDS011;38223;50.940;4.034;2023-04-01T02:58:35;13.80;;;6.97;;
52266;SDS011;38223;50.940;4.034;2023-04-01T03:01:10;18.42;;;8.00;;
52266;SDS011;38223;50.940;4.034;2023-04-01T03:03:45;12.33;;;6.70;;
52266;SDS011;38223;50.940;4.034;2023-04-01T03:06:28;16.10;;;6.92;;
52266;SDS011;38223;50.940;4.034;2023-04-01T03:09:03;11.03;;;7.28;;
52266;SDS011;38223;50.940;4.034;2023-04-01T03:11:39;14.63;;;7.50;;
52266;SDS011;38223;50.940;4.034;2023-04-01T03:14:12;14.38;;;6.87;;
52266;SDS011;38223;50.940;4.034;2023-04-01T03:16:51;14.58;;;6.87;;
52266;SDS011;38223;50.940;4.034;2023-04-01T03:19:26;13.13;;;6.78;;
52266;SDS011;38223;50.940;4.034;2023-04-01T03:22:07;17.12;;;7.12;;
52266;SDS011;38223;50.940;4.034;2023-04-01T03:24:42;13.70;;;6.83;;
52266;SDS011;38223;50.940;4.034;2023-04-01T03:27:22;16.32;;;6.92;;
52266;SDS011;38223;50.940;4.034;2023-04-01T03:29:54;16.55;;;6.80;;
52266;SDS011;38223;50.940;4.034;2023-04-01T03:32:28;17.52;;;6.78;;
52266;SDS011;38223;50.940;4.034;2023-04-01T03:35:00;12.07;;;6.40;;
52266;SDS011;38223;50.940;4.034;2023-04-01T03:37:37;16.93;;;7.45;;
52266;SDS011;38223;50.940;4.034;2023-04-01T03:40:10;12.45;;;6.80;;
52266;SDS011;38223;50.940;4.034;2023-04-01T03:42:50;13.90;;;6.70;;
52266;SDS011;38223;50.940;4.034;2023-04-01T03:45:22;12.80;;;6.42;;
52266;SDS011;38223;50.940;4.034;2023-04-01T03:47:54;11.00;;;6.87;;
52266;SDS011;38223;50.940;4.034;2023-04-01T03:50:22;9.05;;;6.42;;
52266;SDS011;38223;50.940;4.034;2023-04-01T03:52:49;18.52;;;8.03;;
52266;SDS011;38223;50.940;4.034;2023-04-01T03:55:20;9.33;;;6.62;;
52266;SDS011;38223;50.940;4.034;2023-04-01T03:57:56;12.80;;;6.80;;
52266;SDS011;38223;50.940;4.034;2023-04-01T04:00:28;8.25;;;6.28;;
52266;SDS011;38223;50.940;4.034;2023-04-01T04:03:02;9.68;;;5.95;;
52266;SDS011;38223;50.940;4.034;2023-04-01T04:05:40;9.43;;;6.70;;
52266;SDS011;38223;50.940;4.034;2023-04-01T04:08:16;8.20;;;5.87;;
52266;SDS011;38223;50.940;4.034;2023-04-01T04:10:58;10.08;;;5.85;;
52266;SDS011;38223;50.940;4.034;2023-04-01T04:13:39;8.15;;;5.12;;
52266;SDS011;38223;50.940;4.034;2023-04-01T04:16:16;6.33;;;4.17;;
52266;SDS011;38223;50.940;4.034;2023-04-01T04:19:01;4.10;;;3.67;;
52266;SDS011;38223;50.940;4.034;2023-04-01T04:21:43;5.13;;;4.17;;
52266;SDS011;38223;50.940;4.034;2023-04-01T04:24:26;7.37;;;4.17;;
52266;SDS011;38223;50.940;4.034;2023-04-01T04:27:05;5.40;;;4.37;;
52266;SDS011;38223;50.940;4.034;2023-04-01T04:29:38;5.15;;;4.37;;
52266;SDS011;38223;50.940;4.034;2023-04-01T04:32:15;4.50;;;4.10;;
52266;SDS011;38223;50.940;4.034;2023-04-01T04:34:51;4.92;;;4.40;;
52266;SDS011;38223;50.940;4.034;2023-04-01T04:37:32;4.83;;;4.37;;
52266;SDS011;38223;50.940;4.034;2023-04-01T04:40:15;4.70;;;4.12;;
52266;SDS011;38223;50.940;4.034;2023-04-01T04:42:45;4.25;;;3.50;;
52266;SDS011;38223;50.940;4.034;2023-04-01T04:45:25;5.70;;;3.25;;
52266;SDS011;38223;50.940;4.034;2023-04-01T04:47:57;3.72;;;3.35;;
52266;SDS011;38223;50.940;4.034;2023-04-01T04:50:29;3.80;;;3.50;;
52266;SDS011;38223;50.940;4.034;2023-04-01T04:53:20;5.60;;;3.75;;
52266;SDS011;38223;50.940;4.034;2023-04-01T04:56:01;4.30;;;3.70;;
52266;SDS011;38223;50.940;4.034;2023-04-01T04:58:47;5.30;;;3.55;;
52266;SDS011;38223;50.940;4.034;2023-04-01T05:01:23;6.12;;;5.05;;
52266;SDS011;38223;50.940;4.034;2023-04-01T05:03:55;6.25;;;5.60;;
52266;SDS011;38223;50.940;4.034;2023-04-01T05:06:45;8.53;;;6.08;;
52266;SDS011;38223;50.940;4.034;2023-04-01T05:09:17;9.10;;;6.12;;
52266;SDS011;38223;50.940;4.034;2023-04-01T05:12:07;11.33;;;6.87;;
52266;SDS011;38223;50.940;4.034;2023-04-01T05:14:46;9.23;;;6.67;;
52266;SDS011;38223;50.940;4.034;2023-04-01T05:17:14;9.08;;;7.55;;
52266;SDS011;38223;50.940;4.034;2023-04-01T05:19:45;11.88;;;8.13;;
52266;SDS011;38223;50.940;4.034;2023-04-01T05:22:34;11.83;;;8.70;;
52266;SDS011;38223;50.940;4.034;2023-04-01T05:25:06;12.75;;;8.23;;
52266;SDS011;38223;50.940;4.034;2023-04-01T05:27:38;10.63;;;7.87;;
52266;SDS011;38223;50.940;4.034;2023-04-01T05:30:08;15.38;;;8.43;;
52266;SDS011;38223;50.940;4.034;2023-04-01T05:32:42;9.48;;;6.78;;
52266;SDS011;38223;50.940;4.034;2023-04-01T05:35:10;9.90;;;7.83;;
52266;SDS011;38223;50.940;4.034;2023-04-01T05:37:39;11.78;;;8.10;;
52266;SDS011;38223;50.940;4.034;2023-04-01T05:40:30;14.35;;;8.30;;
52266;SDS011;38223;50.940;4.034;2023-04-01T05:43:13;17.52;;;8.38;;
52266;SDS011;38223;50.940;4.034;2023-04-01T05:45:55;11.13;;;7.77;;
52266;SDS011;38223;50.940;4.034;2023-04-01T05:48:41;8.85;;;6.92;;
52266;SDS011;38223;50.940;4.034;2023-04-01T05:51:19;11.22;;;7.83;;
52266;SDS011;38223;50.940;4.034;2023-04-01T05:53:53;10.45;;;9.35;;
52266;SDS011;38223;50.940;4.034;2023-04-01T05:56:36;12.78;;;9.48;;
52266;SDS011;38223;50.940;4.034;2023-04-01T05:59:18;12.58;;;9.33;;
52266;SDS011;38223;50.940;4.034;2023-04-01T06:01:51;15.35;;;10.30;;
52266;SDS011;38223;50.940;4.034;2023-04-01T06:04:27;13.80;;;10.50;;
52266;SDS011;38223;50.940;4.034;2023-04-01T06:07:04;23.57;;;12.23;;
52266;SDS011;38223;50.940;4.034;2023-04-01T06:09:53;16.55;;;12.03;;
52266;SDS011;38223;50.940;4.034;2023-04-01T06:12:40;13.45;;;10.03;;
52266;SDS011;38223;50.940;4.034;2023-04-01T06:15:36;14.23;;;8.98;;
52266;SDS011;38223;50.940;4.034;2023-04-01T06:18:29;10.78;;;8.48;;
52266;SDS011;38223;50.940;4.034;2023-04-01T06:30:37;13.85;;;9.38;;
52266;SDS011;38223;50.940;4.034;2023-04-01T06:48:31;9.18;;;6.75;;
52266;SDS011;38223;50.940;4.034;2023-04-01T06:54:07;3.87;;;3.25;;
52266;SDS011;38223;50.940;4.034;2023-04-01T06:57:10;4.08;;;2.77;;
52266;SDS011;38223;50.940;4.034;2023-04-01T06:59:34;4.22;;;2.50;;
52266;SDS011;38223;50.940;4.034;2023-04-01T07:02:23;2.87;;;2.20;;
52266;SDS011;38223;50.940;4.034;2023-04-01T07:04:57;3.70;;;1.90;;
52266;SDS011;38223;50.940;4.034;2023-04-01T07:07:29;3.17;;;1.35;;
52266;SDS011;38223;50.940;4.034;2023-04-01T07:10:17;1.62;;;0.90;;
52266;SDS011;38223;50.940;4.034;2023-04-01T07:13:06;1.02;;;0.80;;
52266;SDS011;38223;50.940;4.034;2023-04-01T07:15:44;2.37;;;0.98;;
52266;SDS011;38223;50.940;4.034;2023-04-01T07:18:25;0.70;;;0.70;;
52266;SDS011;38223;50.940;4.034;2023-04-01T07:21:00;1.57;;;1.00;;
52266;SDS011;38223;50.940;4.034;2023-04-01T07:23:38;1.55;;;1.45;;
52266;SDS011;38223;50.940;4.034;2023-04-01T07:26:22;2.17;;;1.57;;
52266;SDS011;38223;50.940;4.034;2023-04-01T07:29:04;2.00;;;1.80;;
52266;SDS011;38223;50.940;4.034;2023-04-01T07:38:11;3.17;;;2.05;;
52266;SDS011;38223;50.940;4.034;2023-04-01T07:41:19;1.98;;;1.60;;
52266;SDS011;38223;50.940;4.034;2023-04-01T07:47:08;2.45;;;1.32;;
52266;SDS011;38223;50.940;4.034;2023-04-01T07:52:36;1.75;;;1.65;;
52266;SDS011;38223;50.940;4.034;2023-04-01T07:55:42;2.20;;;1.90;;
52266;SDS011;38223;50.940;4.034;2023-04-01T07:58:29;1.90;;;1.70;;
52266;SDS011;38223;50.940;4.034;2023-04-01T08:07:30;1.90;;;1.72;;
52266;SDS011;38223;50.940;4.034;2023-04-01T08:10:22;1.72;;;1.60;;
52266;SDS011;38223;50.940;4.034;2023-04-01T08:12:56;3.15;;;2.02;;
52266;SDS011;38223;50.940;4.034;2023-04-01T08:15:54;2.42;;;1.75;;
52266;SDS011;38223;50.940;4.034;2023-04-01T08:18:48;2.62;;;1.90;;
52266;SDS011;38223;50.940;4.034;2023-04-01T08:24:24;3.62;;;1.98;;
52266;SDS011;38223;50.940;4.034;2023-04-01T08:26:51;3.15;;;2.00;;
52266;SDS011;38223;50.940;4.034;2023-04-01T08:29:44;2.75;;;2.10;;
52266;SDS011;38223;50.940;4.034;2023-04-01T08:32:39;2.90;;;2.10;;
52266;SDS011;38223;50.940;4.034;2023-04-01T08:35:31;2.75;;;1.55;;
52266;SDS011;38223;50.940;4.034;2023-04-01T08:38:18;2.15;;;2.02;;
52266;SDS011;38223;50.940;4.034;2023-04-01T08:49:43;3.65;;;2.22;;
52266;SDS011;38223;50.940;4.034;2023-04-01T08:52:42;2.58;;;2.37;;
52266;SDS011;38223;50.940;4.034;2023-04-01T09:00:54;3.35;;;2.85;;
52266;SDS011;38223;50.940;4.034;2023-04-01T09:09:17;4.95;;;3.08;;
52266;SDS011;38223;50.940;4.034;2023-04-01T09:26:28;6.10;;;2.77;;
52266;SDS011;38223;50.940;4.034;2023-04-01T09:29:24;3.15;;;2.55;;
52266;SDS011;38223;50.940;4.034;2023-04-01T09:38:18;4.42;;;2.90;;
52266;SDS011;38223;50.940;4.034;2023-04-01T10:07:25;1.47;;;1.20;;
52266;SDS011;38223;50.940;4.034;2023-04-01T10:16:22;2.92;;;0.98;;
52266;SDS011;38223;50.940;4.034;2023-04-01T10:19:18;1.60;;;1.00;;
52266;SDS011;38223;50.940;4.034;2023-04-01T10:27:27;0.85;;;0.78;;
52266;SDS011;38223;50.940;4.034;2023-04-01T10:36:32;1.47;;;0.82;;
52266;SDS011;38223;50.940;4.034;2023-04-01T10:54:51;2.15;;;1.17;;
52266;SDS011;38223;50.940;4.034;2023-04-01T10:57:42;2.98;;;1.10;;
52266;SDS011;38223;50.940;4.034;2023-04-01T11:12:08;4.50;;;1.00;;
52266;SDS011;38223;50.940;4.034;2023-04-01T11:28:55;2.72;;;1.30;;
52266;SDS011;38223;50.940;4.034;2023-04-01T11:31:35;2.58;;;1.40;;
52266;SDS011;38223;50.940;4.034;2023-04-01T11:37:16;1.22;;;1.00;;
52266;SDS011;38223;50.940;4.034;2023-04-01T11:45:39;1.22;;;0.90;;
52266;SDS011;38223;50.940;4.034;2023-04-01T11:51:40;1.37;;;0.90;;
52266;SDS011;38223;50.940;4.034;2023-04-01T11:54:28;2.00;;;1.45;;
52266;SDS011;38223;50.940;4.034;2023-04-01T11:57:05;1.65;;;1.40;;
52266;SDS011;38223;50.940;4.034;2023-04-01T11:59:52;3.45;;;1.62;;
52266;SDS011;38223;50.940;4.034;2023-04-01T12:11:09;1.52;;;1.37;;
52266;SDS011;38223;50.940;4.034;2023-04-01T12:16:42;3.42;;;1.75;;
52266;SDS011;38223;50.940;4.034;2023-04-01T12:22:11;2.02;;;1.42;;
52266;SDS011;38223;50.940;4.034;2023-04-01T12:36:18;2.72;;;1.20;;
52266;SDS011;38223;50.940;4.034;2023-04-01T12:55:52;2.02;;;1.40;;
52266;SDS011;38223;50.940;4.034;2023-04-01T13:10:02;1.92;;;1.70;;
52266;SDS011;38223;50.940;4.034;2023-04-01T13:12:39;5.47;;;1.98;;
52266;SDS011;38223;50.940;4.034;2023-04-01T13:15:25;4.15;;;2.60;;
52266;SDS011;38223;50.940;4.034;2023-04-01T13:20:49;4.80;;;2.12;;
52266;SDS011;38223;50.940;4.034;2023-04-01T13:23:39;2.20;;;1.75;;
52266;SDS011;38223;50.940;4.034;2023-04-01T13:37:46;2.42;;;1.67;;
52266;SDS011;38223;50.940;4.034;2023-04-01T13:40:58;3.77;;;1.95;;
52266;SDS011;38223;50.940;4.034;2023-04-01T13:54:40;2.12;;;1.22;;
52266;SDS011;38223;50.940;4.034;2023-04-01T14:03:11;2.35;;;1.30;;
52266;SDS011;38223;50.940;4.034;2023-04-01T14:10:59;2.60;;;1.35;;
52266;SDS011;38223;50.940;4.034;2023-04-01T14:22:10;2.42;;;1.10;;
52266;SDS011;38223;50.940;4.034;2023-04-01T14:30:50;1.82;;;1.10;;
52266;SDS011;38223;50.940;4.034;2023-04-01T14:42:20;1.42;;;1.20;;
52266;SDS011;38223;50.940;4.034;2023-04-01T14:47:39;2.08;;;1.10;;
52266;SDS011;38223;50.940;4.034;2023-04-01T14:50:11;0.93;;;0.75;;
52266;SDS011;38223;50.940;4.034;2023-04-01T14:52:59;1.98;;;0.90;;
52266;SDS011;38223;50.940;4.034;2023-04-01T14:58:20;1.98;;;0.90;;
52266;SDS011;38223;50.940;4.034;2023-04-01T15:03:39;1.92;;;0.72;;
52266;SDS011;38223;50.940;4.034;2023-04-01T15:07:15;1.35;;;0.75;;
52266;SDS011;38223;50.940;4.034;2023-04-01T15:12:10;1.57;;;0.90;;
52266;SDS011;38223;50.940;4.034;2023-04-01T15:14:46;1.92;;;0.80;;
52266;SDS011;38223;50.940;4.034;2023-04-01T15:17:45;1.42;;;0.80;;
52266;SDS011;38223;50.940;4.034;2023-04-01T15:31:30;1.30;;;0.75;;
52266;SDS011;38223;50.940;4.034;2023-04-01T15:34:09;2.00;;;0.85;;
52266;SDS011;38223;50.940;4.034;2023-04-01T15:37:25;1.27;;;0.80;;
52266;SDS011;38223;50.940;4.034;2023-04-01T15:39:29;1.40;;;0.80;;
52266;SDS011;38223;50.940;4.034;2023-04-01T15:42:17;1.85;;;1.00;;
52266;SDS011;38223;50.940;4.034;2023-04-01T15:44:58;1.72;;;0.90;;
52266;SDS011;38223;50.940;4.034;2023-04-01T15:47:35;1.62;;;1.10;;
52266;SDS011;38223;50.940;4.034;2023-04-01T15:55:53;2.42;;;1.20;;
52266;SDS011;38223;50.940;4.034;2023-04-01T16:04:22;1.72;;;1.20;;
52266;SDS011;38223;50.940;4.034;2023-04-01T16:06:57;2.17;;;1.10;;
52266;SDS011;38223;50.940;4.034;2023-04-01T16:15:29;2.67;;;1.17;;
52266;SDS011;38223;50.940;4.034;2023-04-01T16:23:48;3.45;;;1.85;;
52266;SDS011;38223;50.940;4.034;2023-04-01T16:26:26;1.40;;;1.15;;
52266;SDS011;38223;50.940;4.034;2023-04-01T16:37:55;2.83;;;1.45;;
52266;SDS011;38223;50.940;4.034;2023-04-01T16:39:59;2.40;;;1.17;;
52266;SDS011;38223;50.940;4.034;2023-04-01T16:42:44;2.10;;;1.47;;
52266;SDS011;38223;50.940;4.034;2023-04-01T16:47:54;1.50;;;1.10;;
52266;SDS011;38223;50.940;4.034;2023-04-01T16:50:29;2.47;;;1.22;;
52266;SDS011;38223;50.940;4.034;2023-04-01T16:56:02;2.85;;;1.55;;
52266;SDS011;38223;50.940;4.034;2023-04-01T16:58:42;2.65;;;2.08;;
52266;SDS011;38223;50.940;4.034;2023-04-01T17:01:29;2.10;;;1.90;;
52266;SDS011;38223;50.940;4.034;2023-04-01T17:04:04;2.62;;;1.72;;
52266;SDS011;38223;50.940;4.034;2023-04-01T17:12:17;4.00;;;2.50;;
52266;SDS011;38223;50.940;4.034;2023-04-01T17:20:54;2.10;;;1.75;;
52266;SDS011;38223;50.940;4.034;2023-04-01T17:32:13;3.45;;;2.47;;
52266;SDS011;38223;50.940;4.034;2023-04-01T17:35:06;3.02;;;2.72;;
52266;SDS011;38223;50.940;4.034;2023-04-01T17:38:04;2.50;;;2.30;;
52266;SDS011;38223;50.940;4.034;2023-04-01T17:40:48;2.35;;;2.15;;
52266;SDS011;38223;50.940;4.034;2023-04-01T18:06:26;4.83;;;2.60;;
52266;SDS011;38223;50.940;4.034;2023-04-01T18:09:06;3.10;;;2.73;;
52266;SDS011;38223;50.940;4.034;2023-04-01T18:15:04;3.05;;;2.80;;
52266;SDS011;38223;50.940;4.034;2023-04-01T18:17:56;4.90;;;3.40;;
52266;SDS011;38223;50.940;4.034;2023-04-01T18:26:23;5.97;;;4.10;;
52266;SDS011;38223;50.940;4.034;2023-04-01T18:31:55;5.30;;;4.62;;
52266;SDS011;38223;50.940;4.034;2023-04-01T18:37:36;6.65;;;5.10;;
52266;SDS011;38223;50.940;4.034;2023-04-01T18:40:24;5.33;;;4.80;;
52266;SDS011;38223;50.940;4.034;2023-04-01T18:42:55;6.37;;;4.90;;
52266;SDS011;38223;50.940;4.034;2023-04-01T18:45:36;7.92;;;5.50;;
52266;SDS011;38223;50.940;4.034;2023-04-01T18:48:30;7.20;;;5.83;;
52266;SDS011;38223;50.940;4.034;2023-04-01T18:54:00;8.33;;;7.50;;
52266;SDS011;38223;50.940;4.034;2023-04-01T18:56:34;10.72;;;7.50;;
52266;SDS011;38223;50.940;4.034;2023-04-01T18:59:23;11.20;;;8.23;;
52266;SDS011;38223;50.940;4.034;2023-04-01T19:02:19;16.12;;;10.53;;
52266;SDS011;38223;50.940;4.034;2023-04-01T19:05:14;14.07;;;10.72;;
52266;SDS011;38223;50.940;4.034;2023-04-01T19:07:52;18.82;;;11.45;;
52266;SDS011;38223;50.940;4.034;2023-04-01T19:21:43;28.57;;;14.25;;
52266;SDS011;38223;50.940;4.034;2023-04-01T19:36:56;28.42;;;15.18;;
52266;SDS011;38223;50.940;4.034;2023-04-01T19:38:37;24.67;;;15.08;;
52266;SDS011;38223;50.940;4.034;2023-04-01T19:41:30;29.92;;;16.55;;
52266;SDS011;38223;50.940;4.034;2023-04-01T19:44:19;34.95;;;16.10;;
52266;SDS011;38223;50.940;4.034;2023-04-01T19:47:24;34.10;;;18.07;;
52266;SDS011;38223;50.940;4.034;2023-04-01T19:52:36;30.90;;;16.62;;
52266;SDS011;38223;50.940;4.034;2023-04-01T20:00:53;34.10;;;15.80;;
52266;SDS011;38223;50.940;4.034;2023-04-01T20:15:23;39.67;;;15.32;;
52266;SDS011;38223;50.940;4.034;2023-04-01T20:18:21;40.52;;;17.75;;
52266;SDS011;38223;50.940;4.034;2023-04-01T20:20:54;30.55;;;16.60;;
52266;SDS011;38223;50.940;4.034;2023-04-01T20:26:34;44.55;;;18.82;;
52266;SDS011;38223;50.940;4.034;2023-04-01T20:29:12;43.60;;;18.73;;
52266;SDS011;38223;50.940;4.034;2023-04-01T20:51:31;42.62;;;21.87;;
52266;SDS011;38223;50.940;4.034;2023-04-01T20:54:25;40.30;;;21.48;;
52266;SDS011;38223;50.940;4.034;2023-04-01T20:57:14;54.20;;;23.52;;
52266;SDS011;38223;50.940;4.034;2023-04-01T21:04:02;49.08;;;22.52;;
52266;SDS011;38223;50.940;4.034;2023-04-01T21:05:42;44.10;;;21.55;;
52266;SDS011;38223;50.940;4.034;2023-04-01T21:08:18;55.20;;;24.25;;
52266;SDS011;38223;50.940;4.034;2023-04-01T21:16:31;54.75;;;24.18;;
52266;SDS011;38223;50.940;4.034;2023-04-01T21:30:44;58.87;;;26.73;;
52266;SDS011;38223;50.940;4.034;2023-04-01T21:33:36;61.53;;;27.27;;
52266;SDS011;38223;50.940;4.034;2023-04-01T21:36:20;48.55;;;26.90;;
52266;SDS011;38223;50.940;4.034;2023-04-01T21:53:35;50.43;;;28.05;;
52266;SDS011;38223;50.940;4.034;2023-04-01T22:05:14;51.98;;;27.90;;
52266;SDS011;38223;50.940;4.034;2023-04-01T22:07:54;59.47;;;28.50;;
52266;SDS011;38223;50.940;4.034;2023-04-01T22:10:29;56.37;;;28.83;;
52266;SDS011;38223;50.940;4.034;2023-04-01T22:28:03;52.48;;;26.30;;
52266;SDS011;38223;50.940;4.034;2023-04-01T22:30:48;44.63;;;26.93;;
52266;SDS011;38223;50.940;4.034;2023-04-01T22:33:45;55.95;;;26.40;;
52266;SDS011;38223;50.940;4.034;2023-04-01T22:56:39;38.65;;;25.95;;
52266;SDS011;38223;50.940;4.034;2023-04-01T23:02:33;44.23;;;24.15;;
52266;SDS011;38223;50.940;4.034;2023-04-01T23:05:09;41.98;;;24.27;;
52266;SDS011;38223;50.940;4.034;2023-04-01T23:11:02;37.95;;;23.12;;
52266;SDS011;38223;50.940;4.034;2023-04-01T23:12:49;34.10;;;21.12;;
52266;SDS011;38223;50.940;4.034;2023-04-01T23:15:20;34.20;;;23.50;;
52266;SDS011;38223;50.940;4.034;2023-04-01T23:20:39;39.80;;;23.38;;
52266;SDS011;38223;50.940;4.034;2023-04-01T23:23:20;34.45;;;23.15;;
52266;SDS011;38223;50.940;4.034;2023-04-01T23:26:10;35.88;;;23.25;;
52266;SDS011;38223;50.940;4.034;2023-04-01T23:29:00;35.38;;;22.87;;
52266;SDS011;38223;50.940;4.034;2023-04-01T23:31:38;32.35;;;23.20;;
52266;SDS011;38223;50.940;4.034;2023-04-01T23:34:27;32.15;;;22.98;;
52266;SDS011;38223;50.940;4.034;2023-04-01T23:37:11;32.58;;;22.85;;
52266;SDS011;38223;50.940;4.034;2023-04-01T23:39:52;26.77;;;21.25;;
52266;SDS011;38223;50.940;4.034;2023-04-01T23:42:21;31.37;;;22.65;;
52266;SDS011;38223;50.940;4.034;2023-04-01T23:45:00;28.27;;;21.77;;
52266;SDS011;38223;50.940;4.034;2023-04-01T23:47:37;28.45;;;22.25;;
52266;SDS011;38223;50.940;4.034;2023-04-01T23:50:16;24.70;;;22.02;;
52266;SDS011;38223;50.940;4.034;2023-04-01T23:53:06;24.80;;;20.70;;
52266;SDS011;38223;50.940;4.034;2023-04-01T23:55:40;22.17;;;19.87;;
52266;SDS011;38223;50.940;4.034;2023-04-01T23:58:18;20.82;;;18.57;;
